createdAt,value
2022-08-31T05:40:55.486Z,17.72
2022-08-31T05:43:26.131Z,17.70
2022-08-31T05:45:55.211Z,17.74
2022-08-31T05:58:04.008Z,17.87
2022-08-31T06:55:23.819Z,19.16
2022-08-31T06:58:16.170Z,19.23
2022-08-31T07:01:10.326Z,19.47
2022-08-31T07:03:58.049Z,19.39
2022-08-31T07:06:27.337Z,19.52
2022-08-31T07:08:57.452Z,19.61
2022-08-31T07:11:56.405Z,19.80
2022-08-31T07:14:28.422Z,19.77
2022-08-31T07:16:58.746Z,19.92
2022-08-31T07:19:30.862Z,20.03
2022-08-31T07:22:01.202Z,20.13
2022-08-31T07:24:52.060Z,20.20
2022-08-31T07:42:35.336Z,20.61
2022-08-31T07:45:11.671Z,20.72
2022-08-31T07:47:45.871Z,20.84
2022-08-31T07:50:17.273Z,20.99
2022-08-31T07:53:01.256Z,21.00
2022-08-31T07:55:45.922Z,21.10
2022-08-31T07:58:30.891Z,21.26
2022-08-31T08:01:04.380Z,21.41
2022-08-31T08:03:31.569Z,21.36
2022-08-31T08:06:37.482Z,21.38
2022-08-31T08:09:30.739Z,21.47
2022-08-31T08:55:00.040Z,23.17
2022-08-31T08:57:29.969Z,23.30
2022-08-31T09:00:12.848Z,23.42
2022-08-31T09:03:04.499Z,23.61
2022-08-31T09:06:12.610Z,23.70
2022-08-31T10:51:29.380Z,26.99
2022-08-31T10:54:17.103Z,27.06
2022-08-31T10:57:00.780Z,26.99
2022-08-31T11:00:09.632Z,27.17
2022-08-31T11:03:07.370Z,27.06
2022-08-31T11:05:45.502Z,27.12
2022-08-31T11:08:30.449Z,27.27
2022-08-31T11:10:58.367Z,27.20
2022-08-31T11:13:36.870Z,27.29
2022-08-31T11:20:25.730Z,27.08
2022-08-31T12:33:54.055Z,26.03
2022-08-31T12:48:40.029Z,25.95
2022-08-31T13:11:44.570Z,25.84
2022-08-31T13:14:21.039Z,25.87
2022-08-31T13:16:51.488Z,25.98
2022-08-31T13:19:25.811Z,25.92
2022-08-31T13:22:01.310Z,25.94
2022-08-31T13:24:41.463Z,26.05
2022-08-31T13:27:23.070Z,26.06
2022-08-31T13:29:50.866Z,26.08
2022-08-31T13:32:33.089Z,26.09
2022-08-31T13:35:10.125Z,26.09
2022-08-31T13:37:43.723Z,26.11
2022-08-31T13:40:12.863Z,26.05
2022-08-31T13:42:48.483Z,26.10
2022-08-31T13:45:58.002Z,26.08
2022-08-31T13:48:35.735Z,26.07
2022-08-31T13:51:13.237Z,26.12
2022-08-31T13:54:06.231Z,26.14
2022-08-31T13:56:59.091Z,26.01
2022-08-31T13:59:32.811Z,25.95
2022-08-31T14:02:20.835Z,25.94
2022-08-31T14:04:58.354Z,25.99
2022-08-31T14:18:59.262Z,25.72
2022-08-31T14:21:29.622Z,25.77
2022-08-31T14:24:02.257Z,25.95
2022-08-31T14:26:38.270Z,25.81
2022-08-31T14:29:11.729Z,25.89
2022-08-31T14:31:43.039Z,25.88
2022-08-31T14:34:32.669Z,25.71
2022-08-31T14:37:09.064Z,25.63
2022-08-31T14:39:45.691Z,25.61
2022-08-31T14:42:24.915Z,25.67
2022-08-31T14:45:18.877Z,25.63
2022-08-31T14:47:51.290Z,25.44
2022-08-31T14:50:23.685Z,25.53
2022-08-31T14:52:55.700Z,25.30
2022-08-31T14:55:24.464Z,25.38
2022-08-31T14:57:59.042Z,25.33
2022-08-31T15:00:27.162Z,25.22
2022-08-31T15:02:54.512Z,25.21
2022-08-31T15:05:25.889Z,25.20
2022-08-31T15:07:54.608Z,25.22
2022-08-31T15:10:24.418Z,25.28
2022-08-31T15:12:52.669Z,25.14
2022-08-31T15:15:21.414Z,25.11
2022-08-31T15:27:44.858Z,24.86
2022-08-31T15:34:30.625Z,24.92
2022-08-31T15:43:26.545Z,24.72
2022-08-31T15:49:26.584Z,24.67
2022-08-31T15:55:35.469Z,24.45
2022-08-31T15:58:04.513Z,24.47
2022-08-31T16:00:35.562Z,24.44
2022-08-31T16:03:04.602Z,24.46
2022-08-31T16:05:36.050Z,24.47
2022-08-31T16:08:06.227Z,24.24
2022-08-31T16:10:33.881Z,24.33
2022-08-31T16:13:06.579Z,24.16
2022-08-31T16:18:03.214Z,24.07
2022-08-31T16:20:30.484Z,24.05
2022-08-31T16:22:59.005Z,24.13
2022-08-31T16:25:29.146Z,23.96
2022-08-31T16:27:57.938Z,23.90
2022-08-31T16:42:08.994Z,23.69
2022-08-31T16:47:19.731Z,23.39
2022-08-31T16:49:47.900Z,23.47
2022-08-31T16:52:27.722Z,23.57
